Time;durP1;ratioP1;P1;durP2;ratioP2;P2;SDS_P1;SDS_P2;PMS_P1;PMS_P2;Temp;Humidity;BMP_temperature;BMP_pressure;BME280_temperature;BME280_humidity;BME280_pressure;Samples;Min_cycle;Max_cycle;Signal;HPM_P1;HPM_P2
2023/07/30 00:02:17;;;;;;;1.17;0.95;;;;;;;27.75;45.81;100858.34;4965976;28;96635;-77
2023/07/30 00:04:44;;;;;;;2.20;1.15;;;;;;;27.77;45.65;100856.19;4954594;28;96737;-77
2023/07/30 00:07:11;;;;;;;2.05;1.00;;;;;;;27.76;45.61;100855.34;4952443;28;97000;-78
2023/07/30 00:09:38;;;;;;;1.30;0.80;;;;;;;27.75;45.70;100852.81;4953556;28;98199;-78
2023/07/30 00:12:07;;;;;;;1.63;1.23;;;;;;;27.77;45.64;100853.44;4954681;28;97689;-78
2023/07/30 00:14:34;;;;;;;1.35;0.82;;;;;;;27.76;45.58;100855.34;4953532;28;97159;-77
2023/07/30 00:17:02;;;;;;;1.27;0.98;;;;;;;27.76;45.42;100851.75;4954638;28;97816;-78
2023/07/30 00:19:28;;;;;;;1.80;1.02;;;;;;;27.76;45.48;100849.81;4955201;28;97379;-77
2023/07/30 00:21:55;;;;;;;2.22;0.82;;;;;;;27.75;45.96;100856.41;4951417;28;98048;-77
2023/07/30 00:24:21;;;;;;;1.60;0.90;;;;;;;27.75;45.42;100845.38;4954789;28;97863;-78
2023/07/30 00:26:48;;;;;;;1.75;1.10;;;;;;;27.75;45.54;100845.38;4956437;28;97122;-77
2023/07/30 00:29:15;;;;;;;1.27;0.90;;;;;;;27.75;45.66;100850.91;4954075;28;96656;-77
2023/07/30 00:31:41;;;;;;;1.58;1.02;;;;;;;27.74;45.49;100843.69;4955745;28;98568;-78
2023/07/30 00:34:08;;;;;;;1.63;0.88;;;;;;;27.74;45.46;100843.69;4952530;28;98126;-77
2023/07/30 00:36:35;;;;;;;1.60;0.95;;;;;;;27.75;45.44;100850.91;4970677;28;96825;-78
2023/07/30 00:39:01;;;;;;;1.20;0.90;;;;;;;27.74;45.47;100849.19;4956522;28;97051;-77
2023/07/30 00:41:29;;;;;;;1.55;1.25;;;;;;;27.73;45.62;100843.91;4972674;28;96739;-78
2023/07/30 00:43:56;;;;;;;2.08;1.17;;;;;;;27.73;45.54;100853.03;4956458;28;97499;-77
2023/07/30 00:46:22;;;;;;;2.10;1.00;;;;;;;27.73;45.42;100853.03;4940138;28;96883;-77
2023/07/30 00:48:50;;;;;;;1.20;0.90;;;;;;;27.73;45.59;100855.78;4957240;28;96936;-77
2023/07/30 00:51:17;;;;;;;2.30;0.90;;;;;;;27.73;45.53;100858.56;4961040;28;99597;-77
2023/07/30 00:53:43;;;;;;;1.85;0.80;;;;;;;27.72;45.38;100865.13;4958739;28;96852;-77
2023/07/30 00:56:11;;;;;;;0.90;0.80;;;;;;;27.72;45.60;100859.63;4965780;28;96665;-77
2023/07/30 00:58:38;;;;;;;1.40;0.88;;;;;;;27.73;45.21;100868.75;4971566;28;96737;-78
2023/07/30 01:01:04;;;;;;;1.55;1.05;;;;;;;27.74;45.44;100870.44;4942508;28;97317;-77
2023/07/30 01:03:32;;;;;;;1.85;0.95;;;;;;;27.73;45.38;100864.06;4967066;28;96890;-78
2023/07/30 01:05:59;;;;;;;1.58;1.10;;;;;;;27.73;45.45;100871.50;4951018;28;96772;-77
2023/07/30 01:08:25;;;;;;;0.80;0.60;;;;;;;27.73;45.43;100866.81;4956487;28;96649;-77
2023/07/30 01:10:53;;;;;;;1.15;0.85;;;;;;;27.72;45.38;100867.06;4948676;28;97041;-77
2023/07/30 01:13:20;;;;;;;2.38;1.00;;;;;;;27.71;45.37;100877.25;4953070;28;97983;-78
2023/07/30 01:15:47;;;;;;;1.20;0.70;;;;;;;27.72;45.39;100880.84;4963874;28;96764;-77
2023/07/30 01:18:13;;;;;;;1.58;0.90;;;;;;;27.71;45.58;100874.47;4952855;28;97028;-77
2023/07/30 01:20:40;;;;;;;1.35;0.80;;;;;;;27.72;45.32;100875.31;4951980;28;96937;-77
2023/07/30 01:23:07;;;;;;;2.63;0.90;;;;;;;27.72;45.44;100880.84;4953101;28;96900;-77
2023/07/30 01:25:36;;;;;;;1.48;1.00;;;;;;;27.72;45.24;100875.31;4966575;28;97097;-77
2023/07/30 01:28:05;;;;;;;1.10;0.77;;;;;;;27.71;45.29;100877.25;4954560;28;97009;-77
2023/07/30 01:30:43;;;;;;;1.33;0.85;;;;;;;27.71;45.35;100881.91;4953172;28;98358;-77
2023/07/30 01:33:11;;;;;;;0.95;0.80;;;;;;;27.70;45.25;100886.59;4948357;28;99869;-77
2023/07/30 01:35:38;;;;;;;1.15;0.80;;;;;;;27.70;45.49;100881.06;4955622;28;96986;-78
2023/07/30 01:38:06;;;;;;;2.10;0.90;;;;;;;27.70;45.59;100885.75;4946557;28;96982;-77
2023/07/30 01:40:33;;;;;;;1.05;0.90;;;;;;;27.69;45.44;100893.19;4945286;28;100362;-78
2023/07/30 01:42:59;;;;;;;1.83;1.10;;;;;;;27.70;45.57;100888.50;4949934;28;99733;-77
2023/07/30 01:45:26;;;;;;;1.42;0.93;;;;;;;27.68;45.54;100899.75;4957566;28;96670;-77
2023/07/30 01:47:53;;;;;;;1.42;0.80;;;;;;;27.70;45.37;100902.28;4940594;28;96703;-78
2023/07/30 01:50:19;;;;;;;1.00;0.80;;;;;;;27.68;45.26;100902.53;4934360;28;98679;-78
2023/07/30 01:52:46;;;;;;;1.63;0.95;;;;;;;27.69;45.09;100908.88;4953695;28;96764;-77
2023/07/30 01:55:12;;;;;;;1.30;0.90;;;;;;;27.69;45.06;100906.97;4945845;28;96728;-78
2023/07/30 01:57:39;;;;;;;1.77;1.10;;;;;;;27.68;45.13;100905.28;4969996;28;96799;-77
2023/07/30 02:00:06;;;;;;;1.50;1.00;;;;;;;27.68;45.27;100901.66;4937152;28;98639;-77
2023/07/30 02:02:35;;;;;;;1.90;1.10;;;;;;;27.68;45.08;100905.28;4950015;28;99408;-78
2023/07/30 02:05:02;;;;;;;1.52;0.80;;;;;;;27.68;45.05;100904.44;4949640;28;97337;-78
2023/07/30 02:07:28;;;;;;;1.05;0.80;;;;;;;27.67;45.19;100898.06;4949550;28;97126;-77
2023/07/30 02:09:56;;;;;;;0.93;0.77;;;;;;;27.68;45.29;100905.28;4948743;28;98452;-77
2023/07/30 02:12:22;;;;;;;1.20;1.00;;;;;;;27.68;45.06;100902.53;4948610;28;97544;-77
2023/07/30 02:14:49;;;;;;;1.55;1.13;;;;;;;27.67;45.40;100899.97;4954349;28;97180;-77
2023/07/30 02:17:16;;;;;;;0.90;0.77;;;;;;;27.67;44.88;100900.81;4967674;28;96709;-78
2023/07/30 02:19:42;;;;;;;1.80;0.95;;;;;;;27.67;45.41;100902.75;4970493;28;96710;-78
2023/07/30 02:22:09;;;;;;;1.20;0.90;;;;;;;27.67;45.25;100898.06;4965283;28;99679;-77
2023/07/30 02:24:35;;;;;;;1.63;1.00;;;;;;;27.67;45.15;100903.59;4949916;28;97438;-77
2023/07/30 02:27:03;;;;;;;0.88;0.80;;;;;;;27.66;45.11;100901.88;4949933;28;97662;-78
2023/07/30 02:29:31;;;;;;;1.65;1.05;;;;;;;27.66;45.04;100887.25;4963094;28;98554;-78
2023/07/30 02:31:59;;;;;;;1.42;0.85;;;;;;;27.67;45.06;100886.19;4961873;28;100450;-78
2023/07/30 02:34:26;;;;;;;1.40;1.00;;;;;;;27.66;45.39;100885.34;4938121;28;96845;-77
2023/07/30 02:36:53;;;;;;;1.20;0.80;;;;;;;27.65;45.18;100886.41;4945042;28;97161;-77
2023/07/30 02:39:20;;;;;;;0.80;0.77;;;;;;;27.65;45.02;100886.41;4953277;28;99490;-77
2023/07/30 02:41:47;;;;;;;1.58;1.00;;;;;;;27.66;45.05;100884.50;4947153;28;97251;-77
2023/07/30 02:44:14;;;;;;;1.27;0.90;;;;;;;27.66;44.98;100882.56;4957026;28;96828;-77
2023/07/30 02:46:41;;;;;;;1.38;0.90;;;;;;;27.65;44.99;100880.88;4950594;28;96939;-77
2023/07/30 02:49:08;;;;;;;1.08;0.88;;;;;;;27.64;45.00;100881.94;4956577;28;99141;-78
2023/07/30 02:51:35;;;;;;;1.83;0.85;;;;;;;27.64;45.14;100879.19;4931583;28;96963;-78
2023/07/30 02:54:07;;;;;;;1.48;1.10;;;;;;;27.64;45.08;100876.44;4972155;28;96549;-77
2023/07/30 02:56:34;;;;;;;1.23;0.90;;;;;;;27.63;45.23;100880.25;4963747;28;97504;-77
2023/07/30 02:59:01;;;;;;;1.02;0.80;;;;;;;27.64;45.14;100876.44;4949493;28;96868;-77
2023/07/30 03:01:27;;;;;;;0.82;0.70;;;;;;;27.64;45.01;100881.09;4948915;28;97841;-77
2023/07/30 03:03:54;;;;;;;1.10;0.70;;;;;;;27.62;45.08;100875.81;4961630;28;96748;-78
2023/07/30 03:06:21;;;;;;;1.08;0.80;;;;;;;27.63;44.84;100873.88;4948796;28;99098;-78
2023/07/30 03:08:47;;;;;;;1.92;0.88;;;;;;;27.62;44.96;100878.56;4948348;28;98967;-77
2023/07/30 03:11:14;;;;;;;1.40;0.80;;;;;;;27.62;44.92;100889.59;4951036;28;98601;-77
2023/07/30 03:13:41;;;;;;;1.63;0.93;;;;;;;27.62;44.98;100889.59;4949833;28;97460;-77
2023/07/30 03:16:07;;;;;;;1.30;0.80;;;;;;;27.61;44.88;100890.66;4945983;28;96855;-77
2023/07/30 03:18:34;;;;;;;1.38;0.90;;;;;;;27.62;45.18;100894.28;4962586;28;97278;-78
2023/07/30 03:21:01;;;;;;;0.90;0.70;;;;;;;27.62;44.96;100899.78;4954012;28;96934;-79
2023/07/30 03:23:28;;;;;;;1.02;0.90;;;;;;;27.61;44.83;100898.94;4957879;28;96964;-77
2023/07/30 03:25:54;;;;;;;1.45;0.80;;;;;;;27.61;44.93;100900.84;4947222;28;97171;-77
2023/07/30 03:28:21;;;;;;;1.90;1.10;;;;;;;27.61;45.02;100900.84;4945831;28;97283;-77
2023/07/30 03:30:48;;;;;;;1.05;0.95;;;;;;;27.61;45.06;100907.22;4959402;28;96910;-77
2023/07/30 03:33:14;;;;;;;3.33;1.00;;;;;;;27.61;44.84;100898.09;4951993;28;96849;-78
2023/07/30 03:35:42;;;;;;;1.10;0.90;;;;;;;27.62;44.81;100902.56;4958279;28;96941;-77
2023/07/30 03:38:08;;;;;;;1.05;0.75;;;;;;;27.61;44.80;100904.47;4958956;28;97081;-78
2023/07/30 03:40:35;;;;;;;1.02;0.70;;;;;;;27.61;44.92;100901.69;4949039;28;96849;-77
2023/07/30 03:43:03;;;;;;;1.85;0.80;;;;;;;27.60;45.22;100908.25;4950520;28;96769;-77
2023/07/30 03:45:29;;;;;;;1.35;1.05;;;;;;;27.59;44.73;100901.03;4951340;28;97502;-77
2023/07/30 03:47:56;;;;;;;0.98;0.70;;;;;;;27.59;44.93;100900.19;4962258;28;98528;-78
2023/07/30 03:50:22;;;;;;;1.60;0.90;;;;;;;27.59;45.10;100903.81;4950823;28;98047;-78
2023/07/30 03:52:49;;;;;;;1.48;0.80;;;;;;;27.59;44.90;100908.47;4963905;28;96651;-78
2023/07/30 03:55:16;;;;;;;1.45;0.90;;;;;;;27.58;44.93;100910.38;4938127;28;96748;-77
2023/07/30 03:57:42;;;;;;;1.23;0.85;;;;;;;27.59;44.90;100916.75;4950012;28;100639;-77
2023/07/30 04:00:09;;;;;;;2.00;0.80;;;;;;;27.58;44.72;100918.66;4938748;28;99676;-77
2023/07/30 04:02:45;;;;;;;1.27;0.70;;;;;;;27.58;44.79;100915.91;4955845;28;96803;-78
2023/07/30 04:05:12;;;;;;;1.73;1.10;;;;;;;27.58;44.82;100917.81;4951327;28;97425;-77
2023/07/30 04:07:38;;;;;;;1.00;0.80;;;;;;;27.57;44.98;100914.22;4953581;28;97396;-77
2023/07/30 04:10:07;;;;;;;1.50;0.80;;;;;;;27.58;44.81;100909.53;4938387;28;99578;-77
2023/07/30 04:12:33;;;;;;;1.27;0.90;;;;;;;27.57;44.89;100914.22;4952370;28;97518;-77
2023/07/30 04:15:00;;;;;;;1.48;0.90;;;;;;;27.57;45.03;100919.72;4954109;28;97004;-78
2023/07/30 04:17:27;;;;;;;1.10;0.88;;;;;;;27.57;44.93;100913.38;4949751;28;96772;-78
2023/07/30 04:19:54;;;;;;;0.88;0.70;;;;;;;27.57;44.79;100921.63;4962342;28;97248;-77
2023/07/30 04:22:21;;;;;;;1.33;0.90;;;;;;;27.56;45.00;100918.03;4949425;28;97711;-77
2023/07/30 04:24:48;;;;;;;1.35;0.80;;;;;;;27.56;44.60;100922.72;4966135;28;97736;-77
2023/07/30 04:27:14;;;;;;;0.88;0.75;;;;;;;27.54;44.78;100921.00;4948323;28;97197;-77
2023/07/30 04:29:41;;;;;;;2.42;1.00;;;;;;;27.56;44.97;100920.78;4946010;28;98289;-77
2023/07/30 04:32:07;;;;;;;1.90;1.15;;;;;;;27.55;44.88;100927.38;4948461;28;96826;-77
2023/07/30 04:34:34;;;;;;;1.20;0.75;;;;;;;27.56;44.79;100922.72;4958842;28;96795;-77
2023/07/30 04:37:02;;;;;;;1.02;0.90;;;;;;;27.54;44.75;100925.69;4945163;28;98928;-77
2023/07/30 04:39:31;;;;;;;2.15;1.08;;;;;;;27.56;44.85;100928.22;4956905;28;97469;-77
2023/07/30 04:41:58;;;;;;;1.80;1.20;;;;;;;27.54;44.63;100929.28;4941285;28;97041;-77
2023/07/30 04:44:26;;;;;;;0.93;0.80;;;;;;;27.54;44.82;100934.81;4949292;28;97521;-77
2023/07/30 04:46:55;;;;;;;0.70;0.60;;;;;;;27.53;44.75;100935.88;4944576;28;96849;-77
2023/07/30 04:49:21;;;;;;;1.00;0.82;;;;;;;27.54;44.73;100936.72;4944740;28;99162;-77
2023/07/30 04:51:48;;;;;;;1.48;0.80;;;;;;;27.54;44.84;100931.19;4961488;28;97321;-77
2023/07/30 04:54:16;;;;;;;1.83;0.80;;;;;;;27.53;44.75;100933.13;4952831;28;96869;-77
2023/07/30 04:56:43;;;;;;;1.10;0.80;;;;;;;27.54;45.12;100936.72;4944419;28;99510;-77
2023/07/30 04:59:09;;;;;;;1.52;1.00;;;;;;;27.52;44.70;100939.69;4963501;28;99559;-77
2023/07/30 05:01:36;;;;;;;1.55;0.88;;;;;;;27.53;44.73;100927.59;4968813;28;97035;-78
2023/07/30 05:04:03;;;;;;;1.30;1.00;;;;;;;27.53;44.65;100929.50;4950028;28;96749;-77
2023/07/30 05:06:30;;;;;;;1.27;0.82;;;;;;;27.53;44.69;100935.03;4953072;28;96665;-78
2023/07/30 05:08:56;;;;;;;1.75;0.90;;;;;;;27.53;44.86;100924.84;4944557;28;98504;-77
2023/07/30 05:11:23;;;;;;;1.60;1.00;;;;;;;27.53;44.71;100938.63;4951351;28;96646;-77
2023/07/30 05:13:49;;;;;;;2.13;0.98;;;;;;;27.54;44.72;100939.47;4969496;28;96826;-77
2023/07/30 05:16:16;;;;;;;1.35;0.80;;;;;;;27.53;44.89;100935.88;4953906;28;96981;-77
2023/07/30 05:18:43;;;;;;;1.77;0.85;;;;;;;27.53;44.78;100940.53;4950324;28;98182;-77
2023/07/30 05:21:11;;;;;;;1.55;0.88;;;;;;;27.53;44.48;100940.53;4965996;28;96850;-78
2023/07/30 05:23:38;;;;;;;1.35;0.90;;;;;;;27.51;45.06;100949.03;4953913;28;96766;-77
2023/07/30 05:26:04;;;;;;;0.93;0.60;;;;;;;27.51;44.65;100949.03;4957411;28;98156;-78
2023/07/30 05:28:31;;;;;;;2.53;1.00;;;;;;;27.51;44.65;100954.56;4948373;28;98034;-77
2023/07/30 05:30:57;;;;;;;1.83;1.08;;;;;;;27.51;44.70;100954.56;4959576;28;96720;-77
2023/07/30 05:33:24;;;;;;;1.25;0.80;;;;;;;27.50;44.74;100950.09;4953651;28;96793;-77
2023/07/30 05:35:50;;;;;;;1.23;0.90;;;;;;;27.51;44.59;100959.22;4953199;28;98822;-77
2023/07/30 05:38:17;;;;;;;1.30;0.85;;;;;;;27.51;44.49;100961.97;4950672;28;97545;-78
2023/07/30 05:40:44;;;;;;;1.00;0.90;;;;;;;27.50;44.66;100958.38;4949240;28;96770;-77
2023/07/30 05:43:10;;;;;;;2.28;0.90;;;;;;;27.50;44.51;100958.38;4956938;28;96699;-77
2023/07/30 05:45:37;;;;;;;1.00;0.80;;;;;;;27.49;44.54;100956.66;4948837;28;96960;-77
2023/07/30 05:48:04;;;;;;;2.08;0.75;;;;;;;27.49;44.69;100962.16;4949328;28;97523;-77
2023/07/30 05:50:30;;;;;;;1.80;0.88;;;;;;;27.49;44.68;100951.13;4966430;28;96743;-77
2023/07/30 05:52:57;;;;;;;1.08;0.88;;;;;;;27.50;44.54;100957.53;4951828;28;96970;-77
2023/07/30 05:55:23;;;;;;;1.15;0.80;;;;;;;27.50;44.72;100955.63;4936412;28;96949;-77
2023/07/30 05:57:50;;;;;;;1.75;0.90;;;;;;;27.49;44.57;100961.31;4942916;28;97514;-77
2023/07/30 06:00:17;;;;;;;1.38;0.95;;;;;;;27.49;44.80;100955.81;4951666;28;96747;-77
2023/07/30 06:02:43;;;;;;;1.83;0.80;;;;;;;27.50;44.71;100954.78;4949181;28;97041;-77
2023/07/30 06:05:10;;;;;;;2.03;1.30;;;;;;;27.49;44.65;100955.81;4962596;28;96938;-77
2023/07/30 06:07:37;;;;;;;1.58;1.00;;;;;;;27.48;44.62;100963.22;4972119;28;98323;-77
2023/07/30 06:10:04;;;;;;;1.75;1.02;;;;;;;27.49;44.39;100964.09;4961341;28;97232;-77
2023/07/30 06:12:30;;;;;;;1.90;1.20;;;;;;;27.48;44.67;100959.63;4957348;28;97245;-77
2023/07/30 06:14:57;;;;;;;0.80;0.73;;;;;;;27.48;44.61;100960.47;4963400;28;99320;-77
2023/07/30 06:17:23;;;;;;;1.65;1.10;;;;;;;27.49;44.39;100964.09;4943035;28;97294;-77
2023/07/30 06:19:50;;;;;;;1.75;0.90;;;;;;;27.48;44.55;100960.47;4945666;28;96877;-77
2023/07/30 06:22:16;;;;;;;2.05;1.25;;;;;;;27.47;44.39;100958.78;4936936;28;97992;-77
2023/07/30 06:24:44;;;;;;;1.95;1.13;;;;;;;27.48;44.63;100960.47;4952129;28;101760;-77
2023/07/30 06:27:12;;;;;;;1.10;1.00;;;;;;;27.49;44.50;100964.09;4959839;28;97843;-77
2023/07/30 06:29:38;;;;;;;2.30;1.27;;;;;;;27.48;44.58;100965.16;4936686;28;97159;-77
2023/07/30 06:32:06;;;;;;;1.98;1.10;;;;;;;27.48;44.49;100965.16;4942104;28;96954;-77
2023/07/30 06:34:32;;;;;;;1.27;0.90;;;;;;;27.47;44.31;100967.06;4944769;28;97659;-77
2023/07/30 06:36:59;;;;;;;2.40;1.05;;;;;;;27.48;44.39;100966.00;4946561;28;96725;-77
2023/07/30 06:39:25;;;;;;;1.60;0.93;;;;;;;27.47;44.37;100969.81;4946009;28;96859;-77
2023/07/30 06:41:52;;;;;;;1.75;1.10;;;;;;;27.47;44.73;100969.81;4942273;28;96913;-76
2023/07/30 06:44:19;;;;;;;1.40;1.10;;;;;;;27.47;44.62;100964.28;4949187;28;97893;-77
2023/07/30 06:46:46;;;;;;;1.67;0.95;;;;;;;27.47;44.50;100971.72;4955101;28;96591;-77
2023/07/30 06:49:12;;;;;;;1.70;1.13;;;;;;;27.46;44.39;100970.88;4937047;28;96707;-76
2023/07/30 06:51:39;;;;;;;2.97;1.20;;;;;;;27.46;44.49;100961.75;4930860;28;96902;-77
2023/07/30 06:54:06;;;;;;;1.50;1.02;;;;;;;27.46;44.77;100964.50;4951893;28;97010;-77
2023/07/30 06:56:33;;;;;;;1.40;1.02;;;;;;;27.46;44.37;100964.50;4943173;28;97435;-77
2023/07/30 06:59:01;;;;;;;2.45;1.27;;;;;;;27.46;44.45;100968.13;4948418;28;96834;-77
2023/07/30 07:01:28;;;;;;;1.77;1.10;;;;;;;27.46;44.39;100975.53;4953023;28;97404;-77
2023/07/30 07:03:55;;;;;;;2.13;1.25;;;;;;;27.46;44.53;100972.78;4963007;28;97055;-77
2023/07/30 07:06:22;;;;;;;2.38;1.02;;;;;;;27.46;44.39;100970.88;4955781;28;96834;-77
2023/07/30 07:08:48;;;;;;;1.95;1.17;;;;;;;27.46;44.41;100979.16;4948977;28;97418;-78
2023/07/30 07:11:15;;;;;;;1.83;1.30;;;;;;;27.46;44.35;100978.31;4971608;28;96815;-77
2023/07/30 07:13:41;;;;;;;1.98;0.98;;;;;;;27.46;44.41;100970.03;4950945;28;96925;-77
2023/07/30 07:16:08;;;;;;;2.97;1.30;;;;;;;27.46;44.23;100964.50;4966333;28;98478;-78
2023/07/30 07:18:35;;;;;;;3.00;1.50;;;;;;;27.46;44.32;100970.88;4951501;28;97954;-78
2023/07/30 07:21:02;;;;;;;1.45;1.08;;;;;;;27.46;44.33;100967.28;4952823;28;97676;-78
2023/07/30 07:23:30;;;;;;;2.47;1.20;;;;;;;27.47;44.29;100966.22;4963583;28;96943;-77
2023/07/30 07:25:56;;;;;;;2.05;1.25;;;;;;;27.46;44.52;100973.63;4964592;28;97290;-77
2023/07/30 07:28:23;;;;;;;3.72;1.30;;;;;;;27.46;44.35;100970.03;4952850;28;96987;-77
2023/07/30 07:30:49;;;;;;;1.63;1.20;;;;;;;27.45;44.46;100971.94;4947641;28;96996;-77
2023/07/30 07:33:16;;;;;;;1.85;1.10;;;;;;;27.45;44.54;100980.22;4960157;28;96982;-77
2023/07/30 07:35:43;;;;;;;2.42;1.42;;;;;;;27.45;44.75;100982.97;4952210;28;97315;-77
2023/07/30 07:38:09;;;;;;;2.05;1.30;;;;;;;27.45;44.41;100980.22;4950202;28;97416;-78
2023/07/30 07:40:39;;;;;;;2.28;1.20;;;;;;;27.46;44.34;100979.16;4968199;28;96739;-77
2023/07/30 07:43:07;;;;;;;1.70;1.10;;;;;;;27.46;44.44;100975.53;4965319;28;99858;-77
2023/07/30 07:45:34;;;;;;;2.88;1.27;;;;;;;27.45;44.36;100980.22;4951792;28;97297;-77
2023/07/30 07:48:00;;;;;;;3.05;1.40;;;;;;;27.44;44.23;100985.94;4949442;28;96636;-78
2023/07/30 07:50:27;;;;;;;2.85;1.52;;;;;;;27.44;44.58;100991.47;4955078;28;97637;-77
2023/07/30 07:52:54;;;;;;;1.92;1.25;;;;;;;27.43;44.38;100979.59;4963404;28;97731;-77
2023/07/30 07:55:20;;;;;;;2.33;1.40;;;;;;;27.43;44.23;100993.38;4940618;28;97001;-77
2023/07/30 07:57:47;;;;;;;2.28;1.30;;;;;;;27.42;44.30;100983.41;4938294;28;96609;-78
2023/07/30 08:00:13;;;;;;;2.20;1.50;;;;;;;27.41;44.36;100976.19;4955253;28;96753;-77
2023/07/30 08:02:40;;;;;;;2.25;1.35;;;;;;;27.41;44.57;100978.94;4956998;28;97700;-78
2023/07/30 08:05:08;;;;;;;4.45;1.50;;;;;;;27.42;44.47;100979.81;4949572;28;96684;-77
2023/07/30 08:07:35;;;;;;;4.53;1.50;;;;;;;27.41;44.69;100984.47;4942346;28;97458;-77
2023/07/30 08:10:01;;;;;;;3.10;1.63;;;;;;;27.41;44.37;100986.38;4955982;28;97406;-77
2023/07/30 08:12:28;;;;;;;3.13;1.40;;;;;;;27.40;44.40;100992.97;4958437;28;98093;-77
2023/07/30 08:14:55;;;;;;;2.20;1.42;;;;;;;27.41;44.38;101001.03;4952936;28;98375;-77
2023/07/30 08:17:22;;;;;;;3.00;1.50;;;;;;;27.40;44.33;100995.72;4959214;28;97097;-77
2023/07/30 08:19:49;;;;;;;2.60;1.40;;;;;;;27.40;44.35;101001.22;4966012;28;96684;-77
2023/07/30 08:22:15;;;;;;;2.03;1.63;;;;;;;27.39;44.33;100997.63;4957372;28;96978;-78
2023/07/30 08:24:42;;;;;;;3.03;1.67;;;;;;;27.39;44.33;100992.13;4954576;28;96789;-77
2023/07/30 08:27:09;;;;;;;3.50;1.63;;;;;;;27.38;44.39;101001.44;4976723;28;96978;-76
2023/07/30 08:29:35;;;;;;;3.58;1.40;;;;;;;27.39;44.21;100996.78;4959545;28;97265;-76
2023/07/30 08:32:05;;;;;;;2.53;1.60;;;;;;;27.39;44.19;100996.78;4959357;28;96926;-77
2023/07/30 08:34:32;;;;;;;3.05;1.70;;;;;;;27.39;44.40;100996.78;4971417;28;98444;-77
2023/07/30 08:36:58;;;;;;;2.20;1.25;;;;;;;27.38;44.48;100992.34;4962331;28;97497;-77
2023/07/30 08:39:25;;;;;;;3.78;1.40;;;;;;;27.37;44.33;101001.66;4974334;28;97518;-77
2023/07/30 08:41:52;;;;;;;3.47;1.70;;;;;;;27.38;44.12;101004.22;4956976;28;98731;-78
2023/07/30 08:44:18;;;;;;;3.28;1.40;;;;;;;27.38;44.29;101006.13;4968124;28;97443;-77
2023/07/30 08:46:45;;;;;;;2.40;1.40;;;;;;;27.38;44.43;101006.13;4963896;28;96862;-78
2023/07/30 08:49:11;;;;;;;2.20;1.38;;;;;;;27.38;44.43;101003.38;4966423;28;96880;-77
2023/07/30 08:51:41;;;;;;;2.42;1.65;;;;;;;27.38;44.32;101003.38;4953129;28;97736;-77
2023/07/30 08:54:10;;;;;;;2.05;1.35;;;;;;;27.37;44.34;101007.19;4974956;28;97275;-77
2023/07/30 08:56:36;;;;;;;3.20;1.90;;;;;;;27.37;44.24;101007.19;4957438;28;96726;-77
2023/07/30 08:59:04;;;;;;;3.25;1.45;;;;;;;27.37;44.43;101007.19;4959380;28;96786;-77
2023/07/30 09:01:37;;;;;;;3.15;1.45;;;;;;;27.37;44.43;101016.31;4963633;28;98691;-77
2023/07/30 09:04:05;;;;;;;3.63;1.50;;;;;;;27.36;44.36;101011.84;4959339;28;99338;-78
2023/07/30 09:06:32;;;;;;;3.55;1.60;;;;;;;27.37;44.38;101015.47;4951970;28;96628;-77
2023/07/30 09:08:59;;;;;;;3.45;1.60;;;;;;;27.36;44.31;101016.53;4953037;28;96881;-77
2023/07/30 09:11:27;;;;;;;2.85;1.50;;;;;;;27.36;44.42;101016.53;4952753;28;97843;-77
2023/07/30 09:13:57;;;;;;;2.25;1.48;;;;;;;27.37;44.30;101012.69;4966679;28;98762;-77
2023/07/30 09:16:26;;;;;;;3.55;1.90;;;;;;;27.36;44.26;101016.53;4935066;28;96723;-77
2023/07/30 09:18:54;;;;;;;2.70;1.40;;;;;;;27.37;44.26;101015.47;4947560;28;96925;-77
2023/07/30 09:21:31;;;;;;;2.65;1.70;;;;;;;27.37;44.27;101018.22;4936133;28;98175;-77
2023/07/30 09:24:05;;;;;;;3.17;1.80;;;;;;;27.37;44.45;101023.72;4953178;28;96830;-78
2023/07/30 09:26:46;;;;;;;2.63;1.43;;;;;;;27.37;44.31;101019.06;4950448;28;96659;-77
2023/07/30 09:29:13;;;;;;;2.70;1.70;;;;;;;27.35;44.32;101015.66;4947782;28;96889;-77
2023/07/30 09:31:47;;;;;;;1.90;1.30;;;;;;;27.35;44.52;101018.44;4952223;28;98083;-77
2023/07/30 09:34:20;;;;;;;2.57;1.60;;;;;;;27.35;44.32;101021.19;4948481;28;98255;-77
2023/07/30 09:36:50;;;;;;;2.47;1.67;;;;;;;27.35;44.54;101020.34;4950497;28;96878;-77
2023/07/30 09:39:23;;;;;;;2.28;1.48;;;;;;;27.36;44.56;101033.06;4958438;28;97009;-79
2023/07/30 09:41:51;;;;;;;3.45;2.00;;;;;;;27.36;44.29;101027.56;4963547;28;96863;-77
2023/07/30 09:44:20;;;;;;;3.33;1.70;;;;;;;27.36;44.33;101016.53;4956485;28;97832;-77
2023/07/30 09:46:49;;;;;;;2.88;1.60;;;;;;;27.36;44.32;101028.41;4960500;28;96878;-77
2023/07/30 09:49:17;;;;;;;3.70;1.65;;;;;;;27.35;44.31;101018.44;4969950;28;97249;-77
2023/07/30 09:51:44;;;;;;;4.38;1.75;;;;;;;27.36;44.28;101022.88;4949486;28;97808;-78
2023/07/30 09:54:13;;;;;;;4.10;1.30;;;;;;;27.37;44.36;101027.34;4952503;28;96889;-77
2023/07/30 09:56:41;;;;;;;3.47;1.48;;;;;;;27.37;44.32;101015.47;4951468;28;97461;-76
2023/07/30 09:59:09;;;;;;;2.88;1.70;;;;;;;27.38;44.39;101019.91;4949350;28;97324;-77
2023/07/30 10:01:46;;;;;;;3.63;1.70;;;;;;;27.38;44.09;101014.41;4958476;28;101509;-77
2023/07/30 10:04:13;;;;;;;3.60;1.85;;;;;;;27.37;44.59;101013.53;4944193;28;99247;-77
2023/07/30 10:06:46;;;;;;;2.75;1.40;;;;;;;27.38;44.23;101015.25;4942234;28;97877;-77
2023/07/30 10:09:14;;;;;;;2.88;1.40;;;;;;;27.37;44.32;101019.06;4942592;28;97202;-77
2023/07/30 10:11:42;;;;;;;4.15;1.60;;;;;;;27.38;44.66;101020.75;4945516;28;99363;-77
2023/07/30 10:14:09;;;;;;;2.80;1.48;;;;;;;27.37;44.26;101027.34;4965608;28;96634;-77
2023/07/30 10:16:36;;;;;;;1.95;1.40;;;;;;;27.37;44.24;101020.97;4953489;28;97042;-77
2023/07/30 10:19:03;;;;;;;3.25;1.35;;;;;;;27.37;44.66;101012.69;4949171;28;96863;-77
2023/07/30 10:21:32;;;;;;;3.20;1.83;;;;;;;27.37;44.25;101020.97;4947793;28;98565;-77
2023/07/30 10:24:03;;;;;;;3.42;1.70;;;;;;;27.37;44.12;101029.25;4952591;28;97222;-77
2023/07/30 10:26:33;;;;;;;2.25;1.38;;;;;;;27.37;44.19;101046.66;4957833;28;97213;-77
2023/07/30 10:29:16;;;;;;;2.33;1.45;;;;;;;27.37;44.44;101051.31;4951042;28;99392;-77
2023/07/30 10:31:54;;;;;;;2.83;1.50;;;;;;;27.37;44.31;101070.63;4945816;28;98719;-77
2023/07/30 10:34:25;;;;;;;4.43;2.00;;;;;;;27.35;44.26;101081.03;4947803;28;97584;-78
2023/07/30 10:36:54;;;;;;;3.88;1.60;;;;;;;27.35;44.25;101078.25;4954524;28;96655;-78
2023/07/30 10:39:26;;;;;;;2.97;1.52;;;;;;;27.35;44.14;101065.31;4965496;28;96726;-77
2023/07/30 10:41:55;;;;;;;3.05;1.35;;;;;;;27.34;44.19;101065.53;4960467;28;97924;-77
2023/07/30 10:44:33;;;;;;;2.70;1.48;;;;;;;27.34;44.14;101071.91;4952631;28;96806;-77
2023/07/30 10:47:01;;;;;;;3.80;1.80;;;;;;;27.33;44.06;101061.94;4944805;28;96802;-77
2023/07/30 10:49:29;;;;;;;2.05;1.45;;;;;;;27.33;44.21;101072.09;4958614;28;97732;-77
2023/07/30 10:51:59;;;;;;;3.47;1.80;;;;;;;27.33;44.21;101072.97;4947953;28;97994;-77
2023/07/30 10:54:33;;;;;;;3.53;1.70;;;;;;;27.33;44.06;101077.63;4972089;28;98462;-77
2023/07/30 10:57:00;;;;;;;2.55;1.45;;;;;;;27.33;44.32;101081.22;4950690;28;96755;-77
2023/07/30 10:59:34;;;;;;;3.58;1.48;;;;;;;27.32;44.26;101074.03;4945166;28;97106;-77
2023/07/30 11:02:00;;;;;;;4.40;1.80;;;;;;;27.32;44.13;101078.69;4967482;28;96817;-77
2023/07/30 11:04:27;;;;;;;3.20;1.50;;;;;;;27.32;43.95;101076.78;4944167;28;96860;-77
2023/07/30 11:06:54;;;;;;;4.55;1.60;;;;;;;27.33;44.10;101078.47;4948683;28;96670;-78
2023/07/30 11:09:22;;;;;;;2.03;1.48;;;;;;;27.33;43.89;101080.38;4955452;28;96717;-77
2023/07/30 11:11:50;;;;;;;2.70;1.40;;;;;;;27.33;44.09;101078.47;4954035;28;97742;-76
2023/07/30 11:14:19;;;;;;;2.70;1.73;;;;;;;27.33;44.26;101084.00;4965246;28;96806;-77
2023/07/30 11:16:51;;;;;;;3.67;1.73;;;;;;;27.33;44.16;101080.38;4956520;28;96945;-77
2023/07/30 11:19:18;;;;;;;3.28;1.45;;;;;;;27.33;44.41;101078.47;4951366;28;96892;-77
2023/07/30 11:21:48;;;;;;;2.33;1.33;;;;;;;27.33;44.21;101083.13;4935477;28;98566;-77
2023/07/30 11:24:18;;;;;;;3.45;1.60;;;;;;;27.33;44.17;101083.13;4964928;28;99106;-77
2023/07/30 11:26:58;;;;;;;4.28;1.63;;;;;;;27.34;44.03;101076.56;4945865;28;96799;-77